Phillips, Wisconsin
Current Conditions -  °F | °C
As of 7:15 AM on Friday 24 Oct 2014 (Local Time) from KPBH Reporting Station
Haze Haze  
Wind Chill: 42°   Ceiling: 200
Heat Index: 45°   Visibility: 1mi
Dew Point: 45°   Wind: 5mph
Humidity: 100%   Direction: 180°S
Pressure: 29.96"   Gusts: NA
Location:  45.69°N, 90.41°W
Report Text: KPBH 241215Z AUTO 18004KT 1SM BR OVC002 07/07 A2996 RMK AO2 T00700070
Loading
Personal Weather Stations






























Interactive Weather Map New forecast layout! Learn more

10-Day Weather Forecast

Advertisements
Track Severe Weather on mobile